Time;durP1;ratioP1;P1;durP2;ratioP2;P2;SDS_P1;SDS_P2;PMS_P1;PMS_P2;Temp;Humidity;BMP_temperature;BMP_pressure;BME280_temperature;BME280_humidity;BME280_pressure;Samples;Min_cycle;Max_cycle;Signal;HPM_P1;HPM_P2
2021/06/01 00:01:43;;;;;;;10.55;7.70;;;;;;;16.38;56.66;100137.03;4993221;28;20129;-55
2021/06/01 00:04:10;;;;;;;12.93;8.63;;;;;;;16.37;56.73;100132.69;4993598;28;20581;-55
2021/06/01 00:06:37;;;;;;;9.82;7.35;;;;;;;16.35;56.67;100135.34;4993120;28;20054;-55
2021/06/01 00:09:06;;;;;;;9.95;8.00;;;;;;;16.34;56.77;100124.91;4993549;28;20375;-55
2021/06/01 00:11:31;;;;;;;14.32;7.90;;;;;;;16.33;56.88;100131.00;4997155;28;20042;-55
2021/06/01 00:13:57;;;;;;;14.32;7.95;;;;;;;16.31;56.83;100131.00;4996174;28;20394;-55
2021/06/01 00:16:26;;;;;;;18.63;9.73;;;;;;;16.29;56.74;100137.97;4996781;28;20124;-55
2021/06/01 00:18:52;;;;;;;13.70;8.30;;;;;;;16.28;56.93;100136.22;4996810;28;20065;-55
2021/06/01 00:21:18;;;;;;;22.23;9.15;;;;;;;16.26;56.88;100138.03;4995516;28;20496;-55
2021/06/01 00:23:44;;;;;;;14.38;8.75;;;;;;;16.24;56.89;100131.94;4996528;28;20494;-56
2021/06/01 00:26:11;;;;;;;17.83;8.85;;;;;;;16.22;57.12;100129.31;4995571;28;20132;-54
2021/06/01 00:28:39;;;;;;;13.48;7.82;;;;;;;16.21;57.00;100129.31;4979107;28;20057;-54
2021/06/01 00:31:05;;;;;;;17.63;9.10;;;;;;;16.18;56.89;100129.34;4995302;28;20483;-56
2021/06/01 00:33:33;;;;;;;15.70;8.82;;;;;;;16.17;57.04;100120.63;4979009;28;20038;-56
2021/06/01 00:36:00;;;;;;;17.95;8.70;;;;;;;16.16;57.13;100121.50;4995198;28;20445;-56
2021/06/01 00:38:25;;;;;;;14.57;8.02;;;;;;;16.14;57.18;100120.66;4996443;28;20038;-56
2021/06/01 00:40:51;;;;;;;13.38;8.88;;;;;;;16.13;57.08;100127.59;4996124;28;20034;-56
2021/06/01 00:43:17;;;;;;;13.18;8.68;;;;;;;16.12;57.19;100130.25;4996425;28;20498;-55
2021/06/01 00:45:42;;;;;;;15.10;8.40;;;;;;;16.09;57.28;100128.53;4995303;28;20401;-56
2021/06/01 00:48:08;;;;;;;14.75;8.80;;;;;;;16.08;57.19;100129.41;4995160;28;20042;-54
2021/06/01 00:50:34;;;;;;;12.77;7.80;;;;;;;16.08;57.32;100126.78;4994943;28;20045;-55
2021/06/01 00:53:00;;;;;;;11.70;8.35;;;;;;;16.07;57.30;100127.66;4996221;28;20046;-56
2021/06/01 00:55:29;;;;;;;11.45;8.10;;;;;;;16.06;57.27;100131.16;4995003;28;20045;-56
2021/06/01 00:57:55;;;;;;;9.75;7.30;;;;;;;16.03;57.27;100131.16;4978615;28;20046;-56
2021/06/01 01:02:49;;;;;;;13.52;8.63;;;;;;;15.98;57.27;100136.41;4994547;28;20093;-56
2021/06/01 01:05:16;;;;;;;11.68;8.35;;;;;;;15.98;57.42;100127.69;4994691;28;20468;-54
2021/06/01 01:08:01;;;;;;;14.18;8.93;;;;;;;15.97;57.38;100128.56;4978528;28;20042;-55
2021/06/01 01:10:28;;;;;;;11.77;8.30;;;;;;;15.95;57.41;100127.72;4978850;28;20038;-54
2021/06/01 01:12:59;;;;;;;12.80;8.32;;;;;;;15.94;57.37;100126.84;4995528;28;20038;-54
2021/06/01 01:15:25;;;;;;;13.10;8.27;;;;;;;15.92;57.48;100128.59;4994574;28;20034;-54
2021/06/01 01:17:55;;;;;;;10.65;7.95;;;;;;;15.92;57.51;100120.75;4994454;28;20038;-54
2021/06/01 01:20:57;;;;;;;11.95;8.40;;;;;;;15.87;57.39;100124.25;4994940;28;20038;-55
2021/06/01 01:23:27;;;;;;;14.05;8.63;;;;;;;15.86;57.49;100126.03;4995579;28;20474;-55
2021/06/01 01:26:10;;;;;;;13.05;8.93;;;;;;;15.83;57.31;100128.59;4995748;28;20038;-54
2021/06/01 01:28:51;;;;;;;13.37;10.27;;;;;;;15.81;57.68;100128.59;4994486;28;20478;-54
2021/06/01 01:31:35;;;;;;;12.15;8.85;;;;;;;15.78;57.45;100128.63;4994482;28;20054;-54
2021/06/01 01:34:03;;;;;;;14.57;9.98;;;;;;;15.78;57.58;100127.75;4995252;28;20493;-54
2021/06/01 01:36:29;;;;;;;14.20;8.63;;;;;;;15.76;57.83;100137.34;4994284;28;20500;-56
2021/06/01 01:38:57;;;;;;;17.58;8.68;;;;;;;15.75;57.65;100119.91;4994152;28;20033;-56
2021/06/01 01:41:23;;;;;;;16.58;9.02;;;;;;;15.74;57.77;100126.91;4994540;28;20042;-56
2021/06/01 01:43:53;;;;;;;13.35;9.27;;;;;;;15.72;57.67;100126.03;4994540;28;20125;-55
2021/06/01 01:46:36;;;;;;;10.80;8.13;;;;;;;15.71;57.56;100126.91;4995346;28;20061;-56
2021/06/01 01:49:03;;;;;;;9.05;7.68;;;;;;;15.69;57.98;100131.25;4977980;28;20065;-56
2021/06/01 01:51:39;;;;;;;13.77;8.60;;;;;;;15.65;57.49;100127.81;4993559;28;20509;-55
2021/06/01 01:54:19;;;;;;;8.98;7.13;;;;;;;15.60;57.61;100132.16;4977712;28;20026;-56
2021/06/01 01:56:48;;;;;;;12.15;9.00;;;;;;;15.59;57.46;100129.56;4994826;28;20042;-55
2021/06/01 01:59:35;;;;;;;13.18;7.60;;;;;;;15.56;57.65;100132.19;4995031;28;20089;-55
2021/06/01 02:02:02;;;;;;;12.07;7.35;;;;;;;15.52;57.68;100128.72;4994161;28;20038;-55
2021/06/01 02:04:29;;;;;;;13.10;7.55;;;;;;;15.48;57.73;100130.47;4994953;28;20042;-55
2021/06/01 02:06:56;;;;;;;9.02;6.65;;;;;;;15.47;57.60;100133.97;4993616;28;20482;-55
2021/06/01 02:09:22;;;;;;;8.85;5.78;;;;;;;15.45;57.38;100125.25;4994859;28;20075;-55
2021/06/01 02:11:48;;;;;;;9.63;5.60;;;;;;;15.45;57.52;100126.97;4977331;28;20038;-55
2021/06/01 02:14:13;;;;;;;8.48;5.05;;;;;;;15.45;57.40;100121.75;4993208;28;20043;-55
2021/06/01 02:16:42;;;;;;;7.95;6.07;;;;;;;15.44;57.61;100125.25;4994904;28;20034;-55
2021/06/01 02:19:10;;;;;;;8.52;5.40;;;;;;;15.44;57.70;100127.84;4993602;28;20034;-55
2021/06/01 02:24:31;;;;;;;8.48;5.82;;;;;;;15.39;57.40;100120.03;4993148;28;20041;-55
2021/06/01 02:27:22;;;;;;;8.55;5.57;;;;;;;15.38;57.66;100120.91;4976820;28;20041;-55
2021/06/01 02:30:03;;;;;;;7.60;5.40;;;;;;;15.36;57.47;100120.94;4993174;28;20035;-55
2021/06/01 02:32:40;;;;;;;8.48;6.05;;;;;;;15.36;57.58;100118.31;4993228;28;20038;-55
2021/06/01 02:35:10;;;;;;;9.38;5.80;;;;;;;15.36;57.61;100122.66;4994586;28;20045;-55
2021/06/01 02:37:39;;;;;;;8.35;5.25;;;;;;;15.35;57.73;100111.34;4976694;28;20125;-56
2021/06/01 02:40:06;;;;;;;6.75;5.25;;;;;;;15.34;57.45;100117.44;4976906;28;20565;-55
2021/06/01 02:42:32;;;;;;;5.80;4.90;;;;;;;15.32;57.50;100119.19;4994167;28;20030;-55
2021/06/01 02:44:58;;;;;;;6.60;4.93;;;;;;;15.30;57.58;100114.84;4993912;28;20038;-55
2021/06/01 02:47:23;;;;;;;8.07;4.70;;;;;;;15.27;57.65;100110.50;4993055;28;20071;-55
2021/06/01 02:49:50;;;;;;;7.07;5.28;;;;;;;15.27;57.66;100112.25;4993002;28;20046;-55
2021/06/01 02:52:20;;;;;;;7.57;4.38;;;;;;;15.24;57.63;100126.19;4992878;28;20080;-55
2021/06/01 02:54:46;;;;;;;7.88;5.72;;;;;;;15.20;57.62;100114.84;4993525;28;20393;-55
2021/06/01 02:57:12;;;;;;;7.43;4.72;;;;;;;15.19;57.35;100112.25;4994227;28;20176;-55
2021/06/01 02:59:39;;;;;;;8.05;5.35;;;;;;;15.18;57.60;100116.59;4992765;28;20046;-55
2021/06/01 03:02:05;;;;;;;8.88;5.65;;;;;;;15.16;57.62;100117.47;4992457;28;20133;-55
2021/06/01 03:04:32;;;;;;;6.72;5.20;;;;;;;15.17;57.69;100116.59;4992850;28;20620;-55
2021/06/01 03:07:00;;;;;;;9.25;5.25;;;;;;;15.15;57.48;100119.25;4993824;28;20030;-55
2021/06/01 03:09:31;;;;;;;7.55;5.07;;;;;;;15.17;57.68;100117.50;4992803;28;20045;-56
2021/06/01 03:12:01;;;;;;;9.48;4.95;;;;;;;15.17;57.61;100117.50;4992715;28;20126;-55
2021/06/01 03:14:27;;;;;;;7.65;4.50;;;;;;;15.18;57.40;100118.34;4993096;28;20089;-54
2021/06/01 03:16:52;;;;;;;9.25;5.68;;;;;;;15.19;57.57;100120.09;4976596;28;20038;-54
2021/06/01 03:19:17;;;;;;;6.75;4.45;;;;;;;15.17;57.52;100114.88;4976208;28;20046;-54
2021/06/01 03:21:43;;;;;;;6.53;4.28;;;;;;;15.17;57.40;100107.06;4976522;28;20117;-54
2021/06/01 03:24:09;;;;;;;6.30;4.22;;;;;;;15.17;57.59;100106.16;4976530;28;20510;-54
2021/06/01 03:26:34;;;;;;;7.60;4.03;;;;;;;15.14;57.43;100104.44;4993495;28;20097;-54
2021/06/01 03:29:00;;;;;;;5.70;4.40;;;;;;;15.12;57.56;100105.28;4976333;28;20066;-54
2021/06/01 03:31:30;;;;;;;4.88;3.92;;;;;;;15.11;57.22;100101.84;4992455;28;20058;-54
2021/06/01 03:33:57;;;;;;;6.47;4.32;;;;;;;15.07;57.31;100106.19;4976530;28;20554;-54
2021/06/01 03:36:23;;;;;;;4.05;3.63;;;;;;;15.06;57.12;100100.97;4976595;28;20069;-54
2021/06/01 03:38:50;;;;;;;6.38;4.13;;;;;;;15.05;57.11;100097.50;4992313;28;20038;-54
2021/06/01 03:41:16;;;;;;;7.20;3.97;;;;;;;15.05;57.11;100107.06;4992526;28;20038;-55
2021/06/01 03:43:42;;;;;;;6.72;4.15;;;;;;;15.03;57.15;100104.44;4993806;28;20065;-54
2021/06/01 03:46:09;;;;;;;8.55;4.53;;;;;;;15.03;57.25;100108.78;4996367;28;20501;-54
2021/06/01 03:48:35;;;;;;;7.55;4.28;;;;;;;15.02;57.50;100107.06;4996070;28;20041;-54
2021/06/01 03:51:00;;;;;;;4.55;3.78;;;;;;;15.00;57.25;100109.66;4997037;28;20038;-54
2021/06/01 03:53:28;;;;;;;3.95;3.53;;;;;;;15.00;57.15;100101.00;4995902;28;20120;-54
2021/06/01 03:55:54;;;;;;;5.28;3.72;;;;;;;14.99;57.39;100107.94;4996953;28;20042;-54
2021/06/01 03:58:20;;;;;;;4.53;3.53;;;;;;;14.99;56.97;100114.91;4997400;28;20050;-54
2021/06/01 04:00:46;;;;;;;4.30;3.53;;;;;;;14.97;57.25;100109.66;4996172;28;20042;-54
2021/06/01 04:03:11;;;;;;;4.90;3.50;;;;;;;14.97;57.18;100104.44;4979461;28;20051;-54
2021/06/01 04:05:37;;;;;;;3.83;3.28;;;;;;;14.95;57.21;100103.56;4996271;28;20042;-54
2021/06/01 04:08:07;;;;;;;5.82;3.92;;;;;;;14.95;57.10;100105.34;4980112;28;20057;-54
2021/06/01 04:10:33;;;;;;;6.97;4.30;;;;;;;14.95;56.93;100103.56;4979733;28;20100;-54
2021/06/01 04:12:59;;;;;;;5.30;3.28;;;;;;;14.92;57.21;100094.03;4997071;28;20478;-54
2021/06/01 04:15:25;;;;;;;6.28;3.88;;;;;;;14.92;57.19;100090.56;4996817;28;20157;-54
2021/06/01 04:17:50;;;;;;;7.88;4.20;;;;;;;14.92;57.13;100091.41;4995503;28;20046;-54
2021/06/01 04:20:16;;;;;;;4.53;3.65;;;;;;;14.91;56.88;100094.88;4997324;28;20097;-54
2021/06/01 04:22:47;;;;;;;8.23;3.80;;;;;;;14.89;57.30;100096.63;4996058;28;20093;-55
2021/06/01 04:25:13;;;;;;;6.97;3.85;;;;;;;14.87;57.25;100093.16;4995764;28;20043;-54
2021/06/01 04:27:38;;;;;;;4.68;3.63;;;;;;;14.87;57.03;100092.28;4996663;28;20041;-54
2021/06/01 04:30:07;;;;;;;4.72;3.75;;;;;;;14.86;57.14;100099.25;4995592;28;20030;-54
2021/06/01 04:32:32;;;;;;;4.03;3.42;;;;;;;14.82;57.24;100092.31;4996363;28;20370;-54
2021/06/01 04:34:58;;;;;;;6.38;3.13;;;;;;;14.83;56.95;100101.88;4979152;28;20565;-54
2021/06/01 04:37:23;;;;;;;4.75;3.42;;;;;;;14.85;56.90;100099.25;4996977;28;20034;-54
2021/06/01 04:39:49;;;;;;;4.45;3.28;;;;;;;14.86;56.99;100093.16;4996870;28;20038;-54
2021/06/01 04:42:15;;;;;;;6.45;4.05;;;;;;;14.88;57.06;100094.03;4995639;28;20126;-53
2021/06/01 04:44:45;;;;;;;5.75;3.30;;;;;;;14.87;57.17;100098.38;4996259;28;20092;-54
2021/06/01 04:47:10;;;;;;;3.13;2.80;;;;;;;14.88;57.08;100099.25;4996368;28;20070;-54
2021/06/01 04:49:40;;;;;;;5.35;3.70;;;;;;;14.87;57.11;100092.28;4996184;28;20042;-56
2021/06/01 04:52:08;;;;;;;3.85;3.13;;;;;;;14.88;56.98;100087.06;4996348;28;20038;-56
2021/06/01 04:54:36;;;;;;;7.85;3.00;;;;;;;14.88;57.08;100091.41;4994953;28;20118;-54
2021/06/01 04:57:05;;;;;;;5.80;3.22;;;;;;;14.88;57.01;100094.88;4996258;28;20494;-54
2021/06/01 04:59:30;;;;;;;3.90;3.50;;;;;;;14.88;56.86;100091.41;4978602;28;20482;-54
2021/06/01 05:01:56;;;;;;;4.28;3.28;;;;;;;14.88;56.88;100089.66;4995925;28;20077;-54
2021/06/01 05:04:24;;;;;;;4.72;2.90;;;;;;;14.90;56.76;100093.16;4994646;28;20037;-54
2021/06/01 05:06:49;;;;;;;4.55;3.20;;;;;;;14.90;56.71;100085.31;4995991;28;20045;-54
2021/06/01 05:09:17;;;;;;;3.50;3.17;;;;;;;14.91;56.78;100094.88;4994437;28;20038;-55
2021/06/01 05:11:42;;;;;;;3.72;2.80;;;;;;;14.93;57.00;100089.69;4995733;28;20486;-54
2021/06/01 05:14:11;;;;;;;3.25;2.95;;;;;;;14.94;56.98;100095.75;4995344;28;20049;-54
2021/06/01 05:16:40;;;;;;;4.25;3.45;;;;;;;14.97;56.87;100100.97;4994602;28;20129;-54
2021/06/01 05:19:05;;;;;;;5.85;3.42;;;;;;;14.96;56.90;100094.03;4995661;28;20035;-56
2021/06/01 05:21:31;;;;;;;7.25;3.42;;;;;;;14.98;56.97;100090.53;4994938;28;20041;-55
2021/06/01 05:23:57;;;;;;;5.65;2.92;;;;;;;14.97;56.76;100094.00;4994338;28;20034;-54
2021/06/01 05:26:23;;;;;;;5.03;3.35;;;;;;;14.99;56.75;100094.88;4994263;28;20398;-55
2021/06/01 05:28:53;;;;;;;6.20;3.30;;;;;;;15.00;57.02;100095.78;4995352;28;20042;-56
2021/06/01 05:31:27;;;;;;;4.60;3.45;;;;;;;15.02;56.81;100101.84;4994818;28;20053;-53
2021/06/01 05:34:04;;;;;;;4.20;3.08;;;;;;;15.03;56.70;100094.00;4978655;28;20113;-53
2021/06/01 05:36:32;;;;;;;4.22;2.97;;;;;;;15.05;57.05;100100.09;4995385;28;20498;-54
2021/06/01 05:39:01;;;;;;;7.85;3.30;;;;;;;15.05;56.97;100089.66;4995379;28;20054;-53
2021/06/01 05:41:27;;;;;;;3.90;3.22;;;;;;;15.07;56.77;100094.88;4993641;28;20473;-54
2021/06/01 05:43:52;;;;;;;4.85;3.13;;;;;;;15.09;56.86;100095.75;4995525;28;20038;-54
2021/06/01 05:46:21;;;;;;;4.07;3.45;;;;;;;15.10;57.03;100096.63;4993936;28;20100;-54
2021/06/01 05:48:49;;;;;;;5.55;3.55;;;;;;;15.10;56.83;100084.44;4995111;28;20498;-53
2021/06/01 05:51:21;;;;;;;7.75;3.50;;;;;;;15.11;56.86;100083.56;4993418;28;20042;-54
2021/06/01 05:53:49;;;;;;;3.40;2.97;;;;;;;15.14;56.89;100085.28;4995325;28;20038;-55
2021/06/01 05:56:24;;;;;;;4.35;3.10;;;;;;;15.15;56.84;100082.69;4979073;28;20053;-55
2021/06/01 05:58:55;;;;;;;4.13;3.45;;;;;;;15.17;56.74;100085.28;4994966;28;20085;-54
2021/06/01 06:01:28;;;;;;;5.40;3.58;;;;;;;15.19;56.97;100087.00;4994816;28;20042;-55
2021/06/01 06:03:59;;;;;;;6.47;4.55;;;;;;;15.22;56.86;100083.53;4993801;28;20170;-54
2021/06/01 06:06:34;;;;;;;6.00;4.28;;;;;;;15.26;56.85;100082.63;4993208;28;20046;-53
2021/06/01 06:09:07;;;;;;;7.57;4.82;;;;;;;15.30;57.05;100084.38;4995368;28;20073;-54
2021/06/01 06:11:35;;;;;;;7.13;4.70;;;;;;;15.34;56.95;100083.50;4993752;28;20038;-54
2021/06/01 06:14:11;;;;;;;8.25;4.97;;;;;;;15.37;56.99;100080.00;4993956;28;20053;-54
2021/06/01 06:16:55;;;;;;;;;;;;;;;15.39;57.00;100075.66;4995522;28;20493;-54
2021/06/01 06:19:23;;;;;;;8.57;6.15;;;;;;;15.42;57.01;100074.75;4994027;28;19914;-54
2021/06/01 06:22:02;;;;;;;13.27;7.57;;;;;;;15.44;57.06;100078.22;4994592;28;20049;-54
2021/06/01 06:24:30;;;;;;;18.08;10.80;;;;;;;15.46;56.97;100081.72;4993432;28;20030;-54
2021/06/01 06:27:01;;;;;;;19.27;11.65;;;;;;;15.47;56.79;100075.63;4994472;28;20092;-54
2021/06/01 06:29:29;;;;;;;22.00;11.63;;;;;;;15.49;56.75;100072.13;4992863;28;20033;-54
2021/06/01 06:32:02;;;;;;;15.20;10.85;;;;;;;15.51;56.75;100077.34;4994754;28;20045;-56
2021/06/01 06:34:28;;;;;;;12.40;9.20;;;;;;;15.54;56.95;100079.97;4994580;28;20026;-53
2021/06/01 06:37:02;;;;;;;11.95;8.05;;;;;;;15.56;56.70;100083.44;4994186;28;20049;-54
2021/06/01 06:39:33;;;;;;;;;;;;;;;15.56;56.82;100073.00;4994496;28;20053;-54
2021/06/01 06:42:05;;;;;;;14.02;7.13;;;;;;;15.59;56.83;100075.56;4976930;28;19921;-57
2021/06/01 06:44:42;;;;;;;15.35;6.57;;;;;;;15.60;56.79;100074.69;4993483;28;20031;-56
2021/06/01 06:49:45;;;;;;;12.52;6.13;;;;;;;15.64;56.83;100072.97;4994198;28;19913;-54
2021/06/01 06:52:14;;;;;;;8.48;5.45;;;;;;;15.66;56.94;100074.69;4992902;28;20514;-54
2021/06/01 06:54:45;;;;;;;8.65;5.05;;;;;;;15.69;56.89;100065.94;4993237;28;20629;-54
2021/06/01 06:57:19;;;;;;;8.38;4.95;;;;;;;15.72;56.87;100067.69;4993411;28;20037;-54
2021/06/01 06:59:50;;;;;;;8.50;5.25;;;;;;;15.74;56.91;100064.19;4993048;28;20389;-54
2021/06/01 07:02:20;;;;;;;6.72;4.30;;;;;;;15.77;56.78;100064.19;4992832;28;20050;-54
2021/06/01 07:04:51;;;;;;;7.65;4.22;;;;;;;15.80;56.68;100058.91;4992850;28;20451;-54
2021/06/01 07:07:22;;;;;;;7.25;5.03;;;;;;;15.82;56.93;100057.16;4976577;28;20564;-54
2021/06/01 07:09:56;;;;;;;6.18;4.50;;;;;;;15.84;57.05;100058.03;4994451;28;20039;-54
2021/06/01 07:12:27;;;;;;;6.38;4.38;;;;;;;15.86;56.57;100052.84;4994066;28;20030;-54
2021/06/01 07:15:10;;;;;;;6.00;3.95;;;;;;;15.90;56.76;100051.06;4993117;28;20038;-55
2021/06/01 07:17:35;;;;;;;4.45;3.42;;;;;;;15.91;57.22;100044.97;4992357;28;20038;-54
2021/06/01 07:20:05;;;;;;;6.45;3.63;;;;;;;15.93;56.75;100051.91;4997755;28;20117;-54
2021/06/01 07:22:34;;;;;;;8.85;4.35;;;;;;;15.96;56.62;100048.44;4980983;28;20042;-54
2021/06/01 07:25:05;;;;;;;8.23;4.00;;;;;;;15.97;56.68;100053.66;4997955;28;20061;-53
2021/06/01 07:27:37;;;;;;;10.70;3.47;;;;;;;16.01;56.59;100056.25;4980366;28;20034;-54
2021/06/01 07:30:12;;;;;;;6.22;3.83;;;;;;;16.01;56.71;100057.09;4997891;28;20045;-54
2021/06/01 07:32:44;;;;;;;6.55;3.13;;;;;;;16.03;56.65;100057.09;4980735;28;20058;-54
2021/06/01 07:35:18;;;;;;;7.97;3.53;;;;;;;16.04;56.62;100053.63;4996500;28;20042;-54
2021/06/01 07:37:53;;;;;;;4.50;2.83;;;;;;;16.05;56.69;100053.59;4996650;28;20425;-54
2021/06/01 07:40:25;;;;;;;3.97;3.00;;;;;;;16.07;56.63;100050.97;4980013;28;20034;-54
2021/06/01 07:42:59;;;;;;;6.60;3.60;;;;;;;16.08;56.67;100048.34;4997572;28;20046;-54
2021/06/01 07:45:30;;;;;;;7.67;3.60;;;;;;;16.09;56.75;100051.81;4996676;28;20125;-54
2021/06/01 07:48:04;;;;;;;10.77;2.83;;;;;;;16.08;56.21;100056.19;4996639;28;20293;-54
2021/06/01 07:50:37;;;;;;;4.53;2.55;;;;;;;16.09;56.25;100049.22;4997918;28;20542;-54
2021/06/01 07:53:11;;;;;;;5.75;3.00;;;;;;;16.09;56.30;100036.13;4997511;28;20042;-54
2021/06/01 07:55:42;;;;;;;4.80;3.08;;;;;;;16.09;56.10;100036.13;4997783;28;20486;-54
2021/06/01 07:58:13;;;;;;;4.90;2.75;;;;;;;16.10;55.87;100033.53;4996356;28;20038;-54
2021/06/01 08:00:45;;;;;;;3.85;2.40;;;;;;;16.10;55.80;100035.25;4995903;28;20034;-54
2021/06/01 08:03:17;;;;;;;3.67;2.55;;;;;;;16.11;55.79;100034.38;4996805;28;20133;-54
2021/06/01 08:05:45;;;;;;;5.00;2.83;;;;;;;16.12;55.57;100033.50;4997227;28;20088;-54
2021/06/01 08:08:22;;;;;;;5.38;2.83;;;;;;;16.12;55.56;100036.97;4997128;28;20038;-54
2021/06/01 08:10:53;;;;;;;3.97;2.95;;;;;;;16.14;55.33;100032.59;4995994;28;20121;-55
2021/06/01 08:13:27;;;;;;;3.53;2.63;;;;;;;16.14;55.22;100024.75;4995801;28;20549;-54
2021/06/01 08:15:57;;;;;;;6.30;2.38;;;;;;;16.16;55.00;100016.03;4997202;28;20034;-54
2021/06/01 08:18:31;;;;;;;7.03;2.78;;;;;;;16.18;55.04;100014.28;4996654;28;20040;-56
2021/06/01 08:21:07;;;;;;;;;;;;;;;16.18;55.16;100011.69;4996670;28;20121;-55
2021/06/01 08:23:43;;;;;;;6.50;2.95;;;;;;;16.20;55.28;100018.63;4995664;28;19921;-55
2021/06/01 08:26:15;;;;;;;4.82;2.47;;;;;;;16.22;55.00;100014.25;4997277;28;20063;-55
2021/06/01 08:28:43;;;;;;;6.30;2.65;;;;;;;16.24;54.81;100009.03;4996056;28;20048;-55
2021/06/01 08:31:11;;;;;;;6.82;2.80;;;;;;;16.28;54.85;100015.94;4996365;28;20038;-55
2021/06/01 08:33:39;;;;;;;4.78;1.88;;;;;;;16.31;54.76;100013.31;4996504;28;20387;-55
2021/06/01 08:36:07;;;;;;;4.13;2.45;;;;;;;16.35;54.83;100004.56;4995390;28;20038;-55
2021/06/01 08:38:35;;;;;;;5.60;2.55;;;;;;;16.37;54.68;100000.19;4995164;28;20048;-55
2021/06/01 08:41:06;;;;;;;3.20;2.20;;;;;;;16.40;54.50;99994.94;4994957;28;20121;-55
2021/06/01 08:43:34;;;;;;;6.07;2.50;;;;;;;16.43;54.42;99999.28;4996537;28;20034;-55
2021/06/01 08:46:03;;;;;;;5.72;2.70;;;;;;;16.46;54.49;100004.47;4995457;28;20042;-55
2021/06/01 08:48:34;;;;;;;5.20;2.65;;;;;;;16.51;54.29;99993.97;4996722;28;20030;-55
2021/06/01 08:51:06;;;;;;;3.65;2.28;;;;;;;16.54;54.12;99991.34;4995320;28;20042;-55
2021/06/01 08:53:43;;;;;;;4.30;2.50;;;;;;;16.55;54.33;99978.22;4996465;28;20042;-55
2021/06/01 08:56:15;;;;;;;3.33;2.78;;;;;;;16.59;54.17;99987.78;4979545;28;20050;-55
2021/06/01 08:58:47;;;;;;;4.28;2.75;;;;;;;16.62;53.81;99989.50;4995445;28;20034;-55
2021/06/01 09:01:22;;;;;;;4.43;2.70;;;;;;;16.64;53.88;99985.13;4995237;28;20129;-55
2021/06/01 09:03:55;;;;;;;8.82;3.40;;;;;;;16.66;53.97;99996.44;4996518;28;20100;-55
2021/06/01 09:22:51;;;;;;;3.28;2.30;;;;;;;16.86;53.47;99980.53;4995883;28;20468;-55
2021/06/01 09:28:07;;;;;;;4.25;3.00;;;;;;;16.94;53.25;99975.22;4994574;28;20086;-53
2021/06/01 09:30:59;;;;;;;3.40;2.40;;;;;;;16.95;53.43;99971.75;4995480;28;20144;-54
2021/06/01 09:33:30;;;;;;;4.00;2.53;;;;;;;16.99;53.10;99962.09;4994291;28;20035;-54
2021/06/01 09:36:06;;;;;;;3.72;2.42;;;;;;;17.01;53.12;99965.56;4994130;28;20078;-54
2021/06/01 09:38:45;;;;;;;3.00;2.42;;;;;;;17.03;52.99;99975.16;4995877;28;20034;-54
2021/06/01 09:41:15;;;;;;;3.08;2.25;;;;;;;17.05;53.00;99962.88;4993293;28;20077;-56
2021/06/01 09:44:07;;;;;;;4.63;2.50;;;;;;;17.08;53.05;99966.34;4977820;28;20038;-55
2021/06/01 09:46:35;;;;;;;2.75;2.30;;;;;;;17.12;52.61;99962.81;4993225;28;20050;-55
2021/06/01 09:49:13;;;;;;;4.28;2.22;;;;;;;17.13;52.84;99959.31;4995274;28;20038;-56
2021/06/01 09:51:56;;;;;;;5.63;3.05;;;;;;;17.15;52.60;99958.41;4995274;28;20042;-55
2021/06/01 09:54:32;;;;;;;3.88;2.33;;;;;;;17.18;52.52;99952.28;4993819;28;20034;-55
2021/06/01 09:57:01;;;;;;;7.80;3.03;;;;;;;17.18;52.10;99947.91;4994182;28;20069;-56
2021/06/01 09:59:30;;;;;;;6.00;2.60;;;;;;;17.24;52.69;99956.56;4993962;28;20034;-55
2021/06/01 10:02:01;;;;;;;3.50;2.70;;;;;;;17.24;52.46;99946.94;4994594;28;20038;-55
2021/06/01 10:04:28;;;;;;;3.92;2.67;;;;;;;17.26;52.06;99949.56;4994179;28;20046;-55
2021/06/01 10:06:56;;;;;;;3.30;2.05;;;;;;;17.28;51.92;99953.88;4993738;28;20096;-55
2021/06/01 10:09:24;;;;;;;3.67;2.70;;;;;;;17.29;52.10;99942.53;4994620;28;20056;-55
2021/06/01 10:11:57;;;;;;;5.95;2.75;;;;;;;17.32;51.98;99944.22;4994483;28;20498;-56
2021/06/01 10:14:24;;;;;;;3.47;2.78;;;;;;;17.32;51.87;99947.72;4993266;28;20038;-55
2021/06/01 10:16:50;;;;;;;4.82;2.67;;;;;;;17.35;51.95;99937.22;4993365;28;20058;-55
2021/06/01 10:19:19;;;;;;;3.10;2.35;;;;;;;17.37;51.98;99938.91;4994758;28;20140;-55
2021/06/01 10:21:53;;;;;;;4.93;3.17;;;;;;;17.40;51.78;99931.03;4993480;28;20034;-55
2021/06/01 10:24:19;;;;;;;3.78;2.50;;;;;;;17.41;51.98;99935.38;4993582;28;20081;-56
2021/06/01 10:26:44;;;;;;;4.35;2.75;;;;;;;17.43;51.93;99929.25;4993473;28;20077;-55
2021/06/01 10:29:14;;;;;;;3.20;2.30;;;;;;;17.43;51.69;99926.63;4994626;28;20125;-55
2021/06/01 10:31:43;;;;;;;2.90;2.33;;;;;;;17.44;51.75;99917.84;4994266;28;20046;-55
2021/06/01 10:34:17;;;;;;;3.70;2.50;;;;;;;17.46;51.64;99920.47;4993912;28;20498;-55
2021/06/01 10:42:32;;;;;;;2.75;2.33;;;;;;;17.57;51.62;99912.47;4994248;28;20039;-55
2021/06/01 10:51:27;;;;;;;2.28;2.00;;;;;;;17.65;51.44;99913.19;4993066;28;20594;-55
2021/06/01 10:54:02;;;;;;;6.45;2.72;;;;;;;17.69;51.08;99916.63;4994009;28;20121;-55
2021/06/01 10:56:52;;;;;;;4.43;2.05;;;;;;;17.71;51.23;99905.25;4992787;28;20046;-55
2021/06/01 10:59:17;;;;;;;5.57;2.75;;;;;;;17.75;51.24;99895.59;4993967;28;20048;-55
2021/06/01 11:01:56;;;;;;;4.45;2.78;;;;;;;17.74;51.22;99899.97;4994093;28;20457;-55
2021/06/01 11:04:27;;;;;;;4.38;2.60;;;;;;;17.77;50.91;99901.66;4994331;28;20030;-56
2021/06/01 11:06:58;;;;;;;3.28;2.15;;;;;;;17.78;51.08;99904.25;4993983;28;20038;-56
2021/06/01 11:09:32;;;;;;;4.07;3.10;;;;;;;17.79;51.10;99897.28;4994016;28;20033;-54
2021/06/01 11:12:20;;;;;;;3.45;2.15;;;;;;;17.80;51.30;99891.13;4993947;28;20037;-54
2021/06/01 11:14:47;;;;;;;4.68;2.95;;;;;;;17.81;51.04;99882.38;4983162;28;20057;-54
2021/06/01 11:17:14;;;;;;;3.67;2.80;;;;;;;17.84;51.06;99889.31;4992726;28;20034;-54
2021/06/01 11:20:09;;;;;;;3.28;2.58;;;;;;;17.88;50.90;99889.25;4993525;28;20038;-53
2021/06/01 11:22:56;;;;;;;3.75;2.38;;;;;;;17.91;50.78;99878.72;4992868;28;20062;-54
2021/06/01 11:33:31;;;;;;;3.20;2.47;;;;;;;17.96;50.60;99861.16;4993792;28;20493;-54
2021/06/01 11:36:10;;;;;;;2.83;2.40;;;;;;;17.99;50.70;99860.25;4993844;28;20038;-54
2021/06/01 11:38:47;;;;;;;3.40;2.38;;;;;;;18.00;50.61;99853.25;4993470;28;20097;-54
2021/06/01 11:43:47;;;;;;;3.47;2.38;;;;;;;18.04;50.76;99844.44;4994132;28;20046;-54
2021/06/01 11:46:26;;;;;;;4.93;2.15;;;;;;;18.07;50.61;99850.50;4992485;28;20042;-54
2021/06/01 11:51:23;;;;;;;3.10;2.35;;;;;;;18.12;50.67;99858.28;4992613;28;20058;-55
2021/06/01 11:54:08;;;;;;;4.57;2.47;;;;;;;18.14;50.48;99850.38;4993656;28;20548;-54
2021/06/01 12:21:00;;;;;;;6.78;2.70;;;;;;;18.31;50.50;99831.69;4997250;28;20042;-54
2021/06/01 12:23:37;;;;;;;3.65;2.50;;;;;;;18.34;50.43;99831.66;4995670;28;20085;-54
2021/06/01 12:32:00;;;;;;;4.60;2.38;;;;;;;18.35;50.20;99820.25;4996494;28;20045;-54
2021/06/01 12:34:47;;;;;;;5.05;2.50;;;;;;;18.37;50.20;99815.84;4996938;28;20046;-54
2021/06/01 12:45:04;;;;;;;2.95;2.28;;;;;;;18.42;50.01;99814.00;4996598;28;20049;-54
2021/06/01 12:47:46;;;;;;;4.10;2.28;;;;;;;18.44;50.28;99806.09;4995245;28;20038;-54
2021/06/01 13:07:51;;;;;;;7.30;2.78;;;;;;;18.51;49.84;99790.19;4996329;28;20553;-54
2021/06/01 13:21:48;;;;;;;3.75;2.35;;;;;;;18.59;49.44;99768.19;4995050;28;20125;-55
2021/06/01 13:36:20;;;;;;;4.55;2.58;;;;;;;18.71;49.61;99763.53;4995937;28;20045;-55
2021/06/01 13:38:37;;;;;;;6.47;2.55;;;;;;;18.72;49.87;99765.25;4935226;29;20606;-55
2021/06/01 13:46:39;;;;;;;9.60;2.55;;;;;;;18.78;49.73;99750.28;4994865;28;20525;-55
2021/06/01 13:49:14;;;;;;;2.70;2.03;;;;;;;18.79;49.49;99755.47;4995340;28;20058;-55
2021/06/01 13:56:59;;;;;;;4.15;2.72;;;;;;;18.79;49.32;99757.25;4994730;28;20379;-55
2021/06/01 14:30:39;;;;;;;23.75;15.18;;;;;;;19.11;48.67;99732.03;4993018;28;20042;-56
2021/06/01 14:36:08;;;;;;;12.23;9.00;;;;;;;19.03;48.74;99726.97;4993425;28;20512;-56
2021/06/01 15:47:53;;;;;;;4.18;2.58;;;;;;;18.89;47.78;99673.91;4996425;28;20046;-57